sensor_id;sensor_type;location;lat;lon;timestamp;temperature;humidity
5697;DHT22;2873;50.966;7.210;2022-11-22T00:02:11;7.10;99.90
5697;DHT22;2873;50.966;7.210;2022-11-22T00:04:36;7.10;99.90
5697;DHT22;2873;50.966;7.210;2022-11-22T00:07:02;7.20;99.90
5697;DHT22;2873;50.966;7.210;2022-11-22T00:09:27;7.10;99.90
5697;DHT22;2873;50.966;7.210;2022-11-22T00:11:53;7.10;99.90
5697;DHT22;2873;50.966;7.210;2022-11-22T00:14:18;7.00;99.90
5697;DHT22;2873;50.966;7.210;2022-11-22T00:16:44;6.80;99.90
5697;DHT22;2873;50.966;7.210;2022-11-22T00:19:09;6.80;99.90
5697;DHT22;2873;50.966;7.210;2022-11-22T00:21:35;6.90;99.90
5697;DHT22;2873;50.966;7.210;2022-11-22T00:24:00;7.00;99.90
5697;DHT22;2873;50.966;7.210;2022-11-22T00:26:26;6.80;99.90
5697;DHT22;2873;50.966;7.210;2022-11-22T00:28:52;7.00;99.90
5697;DHT22;2873;50.966;7.210;2022-11-22T00:31:17;7.00;99.90
5697;DHT22;2873;50.966;7.210;2022-11-22T00:33:43;7.10;99.90
5697;DHT22;2873;50.966;7.210;2022-11-22T00:36:08;7.30;99.90
5697;DHT22;2873;50.966;7.210;2022-11-22T00:38:34;7.40;99.90
5697;DHT22;2873;50.966;7.210;2022-11-22T00:40:59;7.50;99.90
5697;DHT22;2873;50.966;7.210;2022-11-22T00:43:25;7.60;99.90
5697;DHT22;2873;50.966;7.210;2022-11-22T00:45:50;7.70;99.90
5697;DHT22;2873;50.966;7.210;2022-11-22T00:48:16;7.70;99.90
5697;DHT22;2873;50.966;7.210;2022-11-22T00:50:41;7.70;99.90
5697;DHT22;2873;50.966;7.210;2022-11-22T00:53:07;7.60;99.90
5697;DHT22;2873;50.966;7.210;2022-11-22T00:55:32;7.60;99.90
5697;DHT22;2873;50.966;7.210;2022-11-22T00:57:58;7.30;99.90
5697;DHT22;2873;50.966;7.210;2022-11-22T01:00:23;7.50;99.90
5697;DHT22;2873;50.966;7.210;2022-11-22T01:02:49;7.40;99.90
5697;DHT22;2873;50.966;7.210;2022-11-22T01:05:14;7.40;99.90
5697;DHT22;2873;50.966;7.210;2022-11-22T01:07:42;7.20;99.90
5697;DHT22;2873;50.966;7.210;2022-11-22T01:10:08;7.30;99.90
5697;DHT22;2873;50.966;7.210;2022-11-22T01:12:34;7.30;99.90
5697;DHT22;2873;50.966;7.210;2022-11-22T01:15:00;7.30;99.90
5697;DHT22;2873;50.966;7.210;2022-11-22T01:17:25;7.30;99.90
5697;DHT22;2873;50.966;7.210;2022-11-22T01:19:51;7.30;99.90
5697;DHT22;2873;50.966;7.210;2022-11-22T01:22:17;7.30;99.90
5697;DHT22;2873;50.966;7.210;2022-11-22T01:24:42;7.40;99.90
5697;DHT22;2873;50.966;7.210;2022-11-22T01:27:08;7.30;99.90
5697;DHT22;2873;50.966;7.210;2022-11-22T01:29:33;7.50;99.90
5697;DHT22;2873;50.966;7.210;2022-11-22T01:31:59;7.60;99.90
5697;DHT22;2873;50.966;7.210;2022-11-22T01:34:25;7.70;99.90
5697;DHT22;2873;50.966;7.210;2022-11-22T01:36:50;7.60;99.90
5697;DHT22;2873;50.966;7.210;2022-11-22T01:39:16;7.60;99.90
5697;DHT22;2873;50.966;7.210;2022-11-22T01:41:41;7.60;99.90
5697;DHT22;2873;50.966;7.210;2022-11-22T01:46:43;7.80;99.90
5697;DHT22;2873;50.966;7.210;2022-11-22T01:49:31;7.80;99.90
5697;DHT22;2873;50.966;7.210;2022-11-22T01:52:04;7.70;99.90
5697;DHT22;2873;50.966;7.210;2022-11-22T01:54:33;7.80;99.90
5697;DHT22;2873;50.966;7.210;2022-11-22T01:57:04;7.80;99.90
5697;DHT22;2873;50.966;7.210;2022-11-22T01:59:32;7.70;99.90
5697;DHT22;2873;50.966;7.210;2022-11-22T02:01:59;7.60;99.90
5697;DHT22;2873;50.966;7.210;2022-11-22T02:04:26;7.50;99.90
5697;DHT22;2873;50.966;7.210;2022-11-22T02:07:01;7.70;99.90
5697;DHT22;2873;50.966;7.210;2022-11-22T02:09:28;7.60;99.90
5697;DHT22;2873;50.966;7.210;2022-11-22T02:11:56;7.60;99.90
5697;DHT22;2873;50.966;7.210;2022-11-22T02:14:26;7.60;99.90
5697;DHT22;2873;50.966;7.210;2022-11-22T02:16:52;7.60;99.90
5697;DHT22;2873;50.966;7.210;2022-11-22T02:22:00;7.60;99.90
5697;DHT22;2873;50.966;7.210;2022-11-22T02:24:36;7.80;99.90
5697;DHT22;2873;50.966;7.210;2022-11-22T02:27:03;7.80;99.90
5697;DHT22;2873;50.966;7.210;2022-11-22T02:29:30;7.60;99.90
5697;DHT22;2873;50.966;7.210;2022-11-22T02:31:56;7.70;99.90
5697;DHT22;2873;50.966;7.210;2022-11-22T02:34:22;7.80;99.90
5697;DHT22;2873;50.966;7.210;2022-11-22T02:36:53;7.80;99.90
5697;DHT22;2873;50.966;7.210;2022-11-22T02:39:22;7.80;99.90
5697;DHT22;2873;50.966;7.210;2022-11-22T02:41:50;7.80;99.90
5697;DHT22;2873;50.966;7.210;2022-11-22T02:44:16;7.90;99.90
5697;DHT22;2873;50.966;7.210;2022-11-22T02:46:51;7.90;99.90
5697;DHT22;2873;50.966;7.210;2022-11-22T02:49:22;7.90;99.90
5697;DHT22;2873;50.966;7.210;2022-11-22T02:51:48;7.90;99.90
5697;DHT22;2873;50.966;7.210;2022-11-22T02:54:14;7.90;99.90
5697;DHT22;2873;50.966;7.210;2022-11-22T02:56:40;7.90;99.90
5697;DHT22;2873;50.966;7.210;2022-11-22T02:59:06;7.90;99.90
5697;DHT22;2873;50.966;7.210;2022-11-22T03:01:31;7.90;99.90
5697;DHT22;2873;50.966;7.210;2022-11-22T03:03:57;7.90;99.90
5697;DHT22;2873;50.966;7.210;2022-11-22T03:06:22;8.00;99.90
5697;DHT22;2873;50.966;7.210;2022-11-22T03:08:48;8.00;99.90
5697;DHT22;2873;50.966;7.210;2022-11-22T03:11:14;8.00;99.90
5697;DHT22;2873;50.966;7.210;2022-11-22T03:13:40;8.00;99.90
5697;DHT22;2873;50.966;7.210;2022-11-22T03:16:06;8.00;99.90
5697;DHT22;2873;50.966;7.210;2022-11-22T03:18:35;7.90;99.90
5697;DHT22;2873;50.966;7.210;2022-11-22T03:21:06;7.90;99.90
5697;DHT22;2873;50.966;7.210;2022-11-22T03:23:32;7.90;99.90
5697;DHT22;2873;50.966;7.210;2022-11-22T03:25:58;7.90;99.90
5697;DHT22;2873;50.966;7.210;2022-11-22T03:28:25;7.90;99.90
5697;DHT22;2873;50.966;7.210;2022-11-22T03:30:50;7.80;99.90
5697;DHT22;2873;50.966;7.210;2022-11-22T03:33:16;7.80;99.90
5697;DHT22;2873;50.966;7.210;2022-11-22T03:35:41;7.80;99.90
5697;DHT22;2873;50.966;7.210;2022-11-22T03:38:07;7.80;99.90
5697;DHT22;2873;50.966;7.210;2022-11-22T03:40:33;7.70;99.90
5697;DHT22;2873;50.966;7.210;2022-11-22T03:43:03;7.70;99.90
5697;DHT22;2873;50.966;7.210;2022-11-22T03:45:29;7.70;99.90
5697;DHT22;2873;50.966;7.210;2022-11-22T03:47:55;7.70;99.90
5697;DHT22;2873;50.966;7.210;2022-11-22T03:50:22;7.70;99.90
5697;DHT22;2873;50.966;7.210;2022-11-22T03:52:48;7.80;99.90
5697;DHT22;2873;50.966;7.210;2022-11-22T03:55:14;7.90;99.90
5697;DHT22;2873;50.966;7.210;2022-11-22T03:57:39;7.80;99.90
5697;DHT22;2873;50.966;7.210;2022-11-22T04:00:06;7.70;99.90
5697;DHT22;2873;50.966;7.210;2022-11-22T04:02:32;7.80;99.90
5697;DHT22;2873;50.966;7.210;2022-11-22T04:04:57;7.80;99.90
5697;DHT22;2873;50.966;7.210;2022-11-22T04:07:23;7.80;99.90
5697;DHT22;2873;50.966;7.210;2022-11-22T04:09:48;7.80;99.90
5697;DHT22;2873;50.966;7.210;2022-11-22T04:12:14;7.80;99.90
5697;DHT22;2873;50.966;7.210;2022-11-22T04:14:39;7.80;99.90
5697;DHT22;2873;50.966;7.210;2022-11-22T04:17:23;7.70;99.90
5697;DHT22;2873;50.966;7.210;2022-11-22T04:20:19;7.70;99.90
5697;DHT22;2873;50.966;7.210;2022-11-22T04:23:08;7.80;99.90
5697;DHT22;2873;50.966;7.210;2022-11-22T04:25:38;7.50;99.90
5697;DHT22;2873;50.966;7.210;2022-11-22T04:28:06;7.60;99.90
5697;DHT22;2873;50.966;7.210;2022-11-22T04:30:31;7.50;99.90
5697;DHT22;2873;50.966;7.210;2022-11-22T04:33:16;7.60;99.90
5697;DHT22;2873;50.966;7.210;2022-11-22T04:35:42;7.50;99.90
5697;DHT22;2873;50.966;7.210;2022-11-22T04:38:08;7.40;99.90
5697;DHT22;2873;50.966;7.210;2022-11-22T04:40:34;7.40;99.90
5697;DHT22;2873;50.966;7.210;2022-11-22T04:43:01;7.40;99.90
5697;DHT22;2873;50.966;7.210;2022-11-22T04:45:45;7.40;99.90
5697;DHT22;2873;50.966;7.210;2022-11-22T04:48:11;7.50;99.90
5697;DHT22;2873;50.966;7.210;2022-11-22T04:50:38;7.50;99.90
5697;DHT22;2873;50.966;7.210;2022-11-22T04:53:24;7.40;99.90
5697;DHT22;2873;50.966;7.210;2022-11-22T04:55:50;7.50;99.90
5697;DHT22;2873;50.966;7.210;2022-11-22T04:58:16;7.40;99.90
5697;DHT22;2873;50.966;7.210;2022-11-22T05:00:42;7.50;99.90
5697;DHT22;2873;50.966;7.210;2022-11-22T05:03:09;7.50;99.90
5697;DHT22;2873;50.966;7.210;2022-11-22T05:05:35;7.40;99.90
5697;DHT22;2873;50.966;7.210;2022-11-22T05:08:02;7.40;99.90
5697;DHT22;2873;50.966;7.210;2022-11-22T05:10:28;7.50;99.90
5697;DHT22;2873;50.966;7.210;2022-11-22T05:13:13;7.50;99.90
5697;DHT22;2873;50.966;7.210;2022-11-22T05:15:39;7.50;99.90
5697;DHT22;2873;50.966;7.210;2022-11-22T05:18:04;7.50;99.90
5697;DHT22;2873;50.966;7.210;2022-11-22T05:20:30;7.50;99.90
5697;DHT22;2873;50.966;7.210;2022-11-22T05:22:55;7.50;99.90
5697;DHT22;2873;50.966;7.210;2022-11-22T05:25:40;7.50;99.90
5697;DHT22;2873;50.966;7.210;2022-11-22T05:28:06;7.40;99.90
5697;DHT22;2873;50.966;7.210;2022-11-22T05:30:31;7.40;99.90
5697;DHT22;2873;50.966;7.210;2022-11-22T05:32:57;7.50;99.90
5697;DHT22;2873;50.966;7.210;2022-11-22T05:35:22;7.40;99.90
5697;DHT22;2873;50.966;7.210;2022-11-22T05:37:48;7.40;99.90
5697;DHT22;2873;50.966;7.210;2022-11-22T05:40:13;7.40;99.90
5697;DHT22;2873;50.966;7.210;2022-11-22T05:42:39;7.40;99.90
5697;DHT22;2873;50.966;7.210;2022-11-22T05:45:05;7.30;99.90
5697;DHT22;2873;50.966;7.210;2022-11-22T05:47:35;7.30;99.90
5697;DHT22;2873;50.966;7.210;2022-11-22T05:50:01;7.20;99.90
5697;DHT22;2873;50.966;7.210;2022-11-22T05:52:26;7.20;99.90
5697;DHT22;2873;50.966;7.210;2022-11-22T05:54:52;7.10;99.90
5697;DHT22;2873;50.966;7.210;2022-11-22T05:57:17;7.20;99.90
5697;DHT22;2873;50.966;7.210;2022-11-22T05:59:43;7.20;99.90
5697;DHT22;2873;50.966;7.210;2022-11-22T06:02:08;7.20;99.90
5697;DHT22;2873;50.966;7.210;2022-11-22T06:04:34;7.20;99.90
5697;DHT22;2873;50.966;7.210;2022-11-22T06:06:59;7.20;99.90
5697;DHT22;2873;50.966;7.210;2022-11-22T06:09:25;7.20;99.90
5697;DHT22;2873;50.966;7.210;2022-11-22T06:11:50;7.20;99.90
5697;DHT22;2873;50.966;7.210;2022-11-22T06:14:16;7.20;99.90
5697;DHT22;2873;50.966;7.210;2022-11-22T06:16:41;7.20;99.90
5697;DHT22;2873;50.966;7.210;2022-11-22T06:19:07;7.20;99.90
5697;DHT22;2873;50.966;7.210;2022-11-22T06:21:33;7.20;99.90
5697;DHT22;2873;50.966;7.210;2022-11-22T06:23:58;7.10;99.90
5697;DHT22;2873;50.966;7.210;2022-11-22T06:26:24;7.10;99.90
5697;DHT22;2873;50.966;7.210;2022-11-22T06:28:50;7.20;99.90
5697;DHT22;2873;50.966;7.210;2022-11-22T06:31:19;7.20;99.90
5697;DHT22;2873;50.966;7.210;2022-11-22T06:33:45;7.10;99.90
5697;DHT22;2873;50.966;7.210;2022-11-22T06:36:16;7.10;99.90
5697;DHT22;2873;50.966;7.210;2022-11-22T06:38:42;6.80;99.90
5697;DHT22;2873;50.966;7.210;2022-11-22T06:41:13;6.70;99.90
5697;DHT22;2873;50.966;7.210;2022-11-22T06:43:40;6.70;99.90
5697;DHT22;2873;50.966;7.210;2022-11-22T06:46:06;6.60;99.90
5697;DHT22;2873;50.966;7.210;2022-11-22T06:48:35;6.70;99.90
5697;DHT22;2873;50.966;7.210;2022-11-22T06:51:03;6.60;99.90
5697;DHT22;2873;50.966;7.210;2022-11-22T06:53:30;6.70;99.90
5697;DHT22;2873;50.966;7.210;2022-11-22T06:58:25;6.60;99.90
5697;DHT22;2873;50.966;7.210;2022-11-22T07:00:51;6.60;99.90
5697;DHT22;2873;50.966;7.210;2022-11-22T07:03:17;6.70;99.90
5697;DHT22;2873;50.966;7.210;2022-11-22T07:05:49;6.80;99.90
5697;DHT22;2873;50.966;7.210;2022-11-22T07:08:15;6.80;99.90
5697;DHT22;2873;50.966;7.210;2022-11-22T07:10:41;6.80;99.90
5697;DHT22;2873;50.966;7.210;2022-11-22T07:13:06;6.70;99.90
5697;DHT22;2873;50.966;7.210;2022-11-22T07:15:32;6.70;99.90
5697;DHT22;2873;50.966;7.210;2022-11-22T07:17:57;6.80;99.90
5697;DHT22;2873;50.966;7.210;2022-11-22T07:20:23;6.70;99.90
5697;DHT22;2873;50.966;7.210;2022-11-22T07:22:48;6.40;99.90
5697;DHT22;2873;50.966;7.210;2022-11-22T07:25:14;6.50;99.90
5697;DHT22;2873;50.966;7.210;2022-11-22T07:27:40;6.70;99.90
5697;DHT22;2873;50.966;7.210;2022-11-22T07:30:06;6.70;99.90
5697;DHT22;2873;50.966;7.210;2022-11-22T07:32:31;6.80;99.90
5697;DHT22;2873;50.966;7.210;2022-11-22T07:34:57;6.80;99.90
5697;DHT22;2873;50.966;7.210;2022-11-22T07:37:22;6.90;99.90
5697;DHT22;2873;50.966;7.210;2022-11-22T07:39:48;6.90;99.90
5697;DHT22;2873;50.966;7.210;2022-11-22T07:42:13;6.80;99.90
5697;DHT22;2873;50.966;7.210;2022-11-22T07:44:39;6.80;99.90
5697;DHT22;2873;50.966;7.210;2022-11-22T07:47:04;6.80;99.90
5697;DHT22;2873;50.966;7.210;2022-11-22T07:49:30;6.80;99.90
5697;DHT22;2873;50.966;7.210;2022-11-22T07:51:55;6.80;99.90
5697;DHT22;2873;50.966;7.210;2022-11-22T07:54:23;6.80;99.90
5697;DHT22;2873;50.966;7.210;2022-11-22T07:56:49;6.90;99.90
5697;DHT22;2873;50.966;7.210;2022-11-22T07:59:15;7.00;99.90
5697;DHT22;2873;50.966;7.210;2022-11-22T08:01:40;6.80;99.90
5697;DHT22;2873;50.966;7.210;2022-11-22T08:04:06;6.90;99.90
5697;DHT22;2873;50.966;7.210;2022-11-22T08:06:31;6.90;99.90
5697;DHT22;2873;50.966;7.210;2022-11-22T08:08:57;7.10;99.90
5697;DHT22;2873;50.966;7.210;2022-11-22T08:11:22;7.00;99.90
5697;DHT22;2873;50.966;7.210;2022-11-22T08:13:48;7.10;99.90
5697;DHT22;2873;50.966;7.210;2022-11-22T08:16:15;7.10;99.90
5697;DHT22;2873;50.966;7.210;2022-11-22T08:18:46;7.20;99.90
5697;DHT22;2873;50.966;7.210;2022-11-22T08:21:13;7.20;99.90
5697;DHT22;2873;50.966;7.210;2022-11-22T08:23:40;7.70;99.90
5697;DHT22;2873;50.966;7.210;2022-11-22T08:26:07;8.20;99.90
5697;DHT22;2873;50.966;7.210;2022-11-22T08:28:33;8.60;99.90
5697;DHT22;2873;50.966;7.210;2022-11-22T08:33:25;9.40;99.90
5697;DHT22;2873;50.966;7.210;2022-11-22T08:35:51;10.00;99.90
5697;DHT22;2873;50.966;7.210;2022-11-22T08:38:16;10.50;99.90
5697;DHT22;2873;50.966;7.210;2022-11-22T08:40:42;10.60;99.90
5697;DHT22;2873;50.966;7.210;2022-11-22T08:43:07;11.10;99.90
5697;DHT22;2873;50.966;7.210;2022-11-22T08:45:33;11.50;99.90
5697;DHT22;2873;50.966;7.210;2022-11-22T08:47:58;11.50;99.90
5697;DHT22;2873;50.966;7.210;2022-11-22T08:50:24;11.50;99.90
5697;DHT22;2873;50.966;7.210;2022-11-22T08:52:49;11.50;99.90
5697;DHT22;2873;50.966;7.210;2022-11-22T08:55:15;11.50;99.90
5697;DHT22;2873;50.966;7.210;2022-11-22T08:57:41;11.80;99.90
5697;DHT22;2873;50.966;7.210;2022-11-22T09:00:07;12.00;99.90
5697;DHT22;2873;50.966;7.210;2022-11-22T09:02:33;11.80;99.90
5697;DHT22;2873;50.966;7.210;2022-11-22T09:04:58;12.30;99.90
5697;DHT22;2873;50.966;7.210;2022-11-22T09:07:24;12.40;99.90
5697;DHT22;2873;50.966;7.210;2022-11-22T09:09:49;11.90;99.90
5697;DHT22;2873;50.966;7.210;2022-11-22T09:12:15;11.10;99.90
5697;DHT22;2873;50.966;7.210;2022-11-22T09:14:40;11.00;99.90
5697;DHT22;2873;50.966;7.210;2022-11-22T09:17:06;10.90;99.90
5697;DHT22;2873;50.966;7.210;2022-11-22T09:19:32;10.60;99.90
5697;DHT22;2873;50.966;7.210;2022-11-22T09:21:57;10.40;99.90
5697;DHT22;2873;50.966;7.210;2022-11-22T09:24:23;11.00;99.90
5697;DHT22;2873;50.966;7.210;2022-11-22T09:26:48;10.80;99.90
5697;DHT22;2873;50.966;7.210;2022-11-22T09:29:14;10.90;99.90
5697;DHT22;2873;50.966;7.210;2022-11-22T09:31:40;11.10;99.90
5697;DHT22;2873;50.966;7.210;2022-11-22T09:34:06;11.80;99.90
5697;DHT22;2873;50.966;7.210;2022-11-22T09:36:32;12.70;99.90
5697;DHT22;2873;50.966;7.210;2022-11-22T09:38:57;13.30;99.90
5697;DHT22;2873;50.966;7.210;2022-11-22T09:41:34;13.20;99.90
5697;DHT22;2873;50.966;7.210;2022-11-22T09:50:49;14.40;99.90
5697;DHT22;2873;50.966;7.210;2022-11-22T09:53:17;15.60;99.90
5697;DHT22;2873;50.966;7.210;2022-11-22T09:55:48;15.50;99.90
5697;DHT22;2873;50.966;7.210;2022-11-22T09:58:28;15.50;99.90
5697;DHT22;2873;50.966;7.210;2022-11-22T10:01:00;14.50;99.90
5697;DHT22;2873;50.966;7.210;2022-11-22T10:04:02;13.60;99.90
5697;DHT22;2873;50.966;7.210;2022-11-22T10:06:44;14.00;99.90
5697;DHT22;2873;50.966;7.210;2022-11-22T10:18:17;12.40;99.90
5697;DHT22;2873;50.966;7.210;2022-11-22T10:20:45;11.70;99.90
5697;DHT22;2873;50.966;7.210;2022-11-22T10:23:21;11.10;99.90
5697;DHT22;2873;50.966;7.210;2022-11-22T10:25:58;10.50;99.90
5697;DHT22;2873;50.966;7.210;2022-11-22T10:28:42;10.60;99.90
5697;DHT22;2873;50.966;7.210;2022-11-22T10:31:30;10.50;99.90
5697;DHT22;2873;50.966;7.210;2022-11-22T10:34:29;10.20;99.90
5697;DHT22;2873;50.966;7.210;2022-11-22T10:53:45;10.50;99.90
5697;DHT22;2873;50.966;7.210;2022-11-22T11:01:48;10.10;99.90
5697;DHT22;2873;50.966;7.210;2022-11-22T11:04:19;10.10;99.90
5697;DHT22;2873;50.966;7.210;2022-11-22T11:06:48;10.00;99.90
5697;DHT22;2873;50.966;7.210;2022-11-22T11:09:21;10.30;99.90
5697;DHT22;2873;50.966;7.210;2022-11-22T11:11:50;10.10;99.90
5697;DHT22;2873;50.966;7.210;2022-11-22T11:14:35;10.60;99.90
5697;DHT22;2873;50.966;7.210;2022-11-22T11:17:05;10.70;99.90
5697;DHT22;2873;50.966;7.210;2022-11-22T11:19:36;11.30;99.90
5697;DHT22;2873;50.966;7.210;2022-11-22T11:24:31;10.80;99.90
5697;DHT22;2873;50.966;7.210;2022-11-22T11:26:58;10.50;99.90
5697;DHT22;2873;50.966;7.210;2022-11-22T11:29:49;10.20;99.90
5697;DHT22;2873;50.966;7.210;2022-11-22T11:32:18;10.20;99.90
5697;DHT22;2873;50.966;7.210;2022-11-22T11:35:00;10.90;99.90
5697;DHT22;2873;50.966;7.210;2022-11-22T11:37:34;11.90;99.90
5697;DHT22;2873;50.966;7.210;2022-11-22T11:40:05;12.70;99.90
5697;DHT22;2873;50.966;7.210;2022-11-22T11:42:33;12.50;99.90
5697;DHT22;2873;50.966;7.210;2022-11-22T11:45:19;12.70;99.90
5697;DHT22;2873;50.966;7.210;2022-11-22T11:47:50;12.50;99.90
5697;DHT22;2873;50.966;7.210;2022-11-22T11:50:21;12.40;99.90
5697;DHT22;2873;50.966;7.210;2022-11-22T11:53:02;12.40;99.90
5697;DHT22;2873;50.966;7.210;2022-11-22T11:55:33;12.30;99.90
5697;DHT22;2873;50.966;7.210;2022-11-22T11:58:01;12.90;99.90
5697;DHT22;2873;50.966;7.210;2022-11-22T12:00:34;12.80;99.90
5697;DHT22;2873;50.966;7.210;2022-11-22T12:03:06;12.40;99.90
5697;DHT22;2873;50.966;7.210;2022-11-22T12:05:33;12.00;99.90
5697;DHT22;2873;50.966;7.210;2022-11-22T12:07:59;12.30;99.90
5697;DHT22;2873;50.966;7.210;2022-11-22T12:10:48;12.20;99.90
5697;DHT22;2873;50.966;7.210;2022-11-22T12:13:29;12.90;99.90
5697;DHT22;2873;50.966;7.210;2022-11-22T12:16:23;13.30;99.90
5697;DHT22;2873;50.966;7.210;2022-11-22T12:21:52;14.10;99.90
5697;DHT22;2873;50.966;7.210;2022-11-22T12:24:54;14.40;99.90
5697;DHT22;2873;50.966;7.210;2022-11-22T12:27:20;14.50;99.90
5697;DHT22;2873;50.966;7.210;2022-11-22T12:29:46;14.80;99.90
5697;DHT22;2873;50.966;7.210;2022-11-22T12:32:28;14.40;99.90
5697;DHT22;2873;50.966;7.210;2022-11-22T12:35:10;14.00;99.90
5697;DHT22;2873;50.966;7.210;2022-11-22T12:37:47;14.40;99.90
5697;DHT22;2873;50.966;7.210;2022-11-22T12:40:30;13.50;99.90
5697;DHT22;2873;50.966;7.210;2022-11-22T12:43:00;13.10;99.90
5697;DHT22;2873;50.966;7.210;2022-11-22T12:45:35;12.50;99.90
5697;DHT22;2873;50.966;7.210;2022-11-22T12:48:07;11.90;99.90
5697;DHT22;2873;50.966;7.210;2022-11-22T12:50:43;11.60;99.90
5697;DHT22;2873;50.966;7.210;2022-11-22T12:53:57;11.60;99.90
5697;DHT22;2873;50.966;7.210;2022-11-22T12:56:17;11.60;99.90
5697;DHT22;2873;50.966;7.210;2022-11-22T12:58:48;11.20;99.90
5697;DHT22;2873;50.966;7.210;2022-11-22T13:06:54;10.70;99.90
5697;DHT22;2873;50.966;7.210;2022-11-22T13:09:33;10.70;99.90
5697;DHT22;2873;50.966;7.210;2022-11-22T13:12:12;10.30;99.90
5697;DHT22;2873;50.966;7.210;2022-11-22T13:14:47;10.40;99.90
5697;DHT22;2873;50.966;7.210;2022-11-22T13:17:16;10.40;99.90
5697;DHT22;2873;50.966;7.210;2022-11-22T13:19:49;10.50;99.90
5697;DHT22;2873;50.966;7.210;2022-11-22T13:27:44;10.40;99.90
5697;DHT22;2873;50.966;7.210;2022-11-22T13:30:21;10.50;99.90
5697;DHT22;2873;50.966;7.210;2022-11-22T13:32:50;10.60;99.90
5697;DHT22;2873;50.966;7.210;2022-11-22T13:35:25;10.60;99.90
5697;DHT22;2873;50.966;7.210;2022-11-22T13:37:55;10.80;99.90
5697;DHT22;2873;50.966;7.210;2022-11-22T13:40:34;10.90;99.90
5697;DHT22;2873;50.966;7.210;2022-11-22T13:45:55;10.70;99.90
5697;DHT22;2873;50.966;7.210;2022-11-22T13:51:50;10.80;99.90
5697;DHT22;2873;50.966;7.210;2022-11-22T13:57:13;10.50;99.90
5697;DHT22;2873;50.966;7.210;2022-11-22T14:02:44;10.60;99.90
5697;DHT22;2873;50.966;7.210;2022-11-22T14:05:20;10.40;99.90
5697;DHT22;2873;50.966;7.210;2022-11-22T14:07:51;10.30;99.90
5697;DHT22;2873;50.966;7.210;2022-11-22T14:13:22;10.20;99.90
5697;DHT22;2873;50.966;7.210;2022-11-22T14:27:03;9.90;99.90
5697;DHT22;2873;50.966;7.210;2022-11-22T14:32:23;10.00;99.90
5697;DHT22;2873;50.966;7.210;2022-11-22T14:40:01;10.00;99.90
5697;DHT22;2873;50.966;7.210;2022-11-22T14:48:27;9.90;99.90
5697;DHT22;2873;50.966;7.210;2022-11-22T14:51:03;9.70;99.90
5697;DHT22;2873;50.966;7.210;2022-11-22T14:56:40;9.70;99.90
5697;DHT22;2873;50.966;7.210;2022-11-22T15:05:09;9.80;99.90
5697;DHT22;2873;50.966;7.210;2022-11-22T15:15:39;9.50;99.90
5697;DHT22;2873;50.966;7.210;2022-11-22T15:20:45;9.50;99.90
5697;DHT22;2873;50.966;7.210;2022-11-22T15:23:20;9.50;99.90
5697;DHT22;2873;50.966;7.210;2022-11-22T15:26:13;9.50;99.90
5697;DHT22;2873;50.966;7.210;2022-11-22T15:28:45;9.60;99.90
5697;DHT22;2873;50.966;7.210;2022-11-22T15:31:13;9.50;99.90
5697;DHT22;2873;50.966;7.210;2022-11-22T15:33:51;9.50;99.90
5697;DHT22;2873;50.966;7.210;2022-11-22T15:39:27;9.50;99.90
5697;DHT22;2873;50.966;7.210;2022-11-22T15:41:53;9.50;99.90
5697;DHT22;2873;50.966;7.210;2022-11-22T15:44:21;9.50;99.90
5697;DHT22;2873;50.966;7.210;2022-11-22T15:46:48;9.50;99.90
5697;DHT22;2873;50.966;7.210;2022-11-22T15:49:16;9.60;99.90
5697;DHT22;2873;50.966;7.210;2022-11-22T15:51:57;9.70;99.90
5697;DHT22;2873;50.966;7.210;2022-11-22T15:54:37;9.70;99.90
5697;DHT22;2873;50.966;7.210;2022-11-22T16:00:00;9.60;99.90
5697;DHT22;2873;50.966;7.210;2022-11-22T16:02:27;9.60;99.90
5697;DHT22;2873;50.966;7.210;2022-11-22T16:05:03;9.70;99.90
5697;DHT22;2873;50.966;7.210;2022-11-22T16:07:41;9.40;99.90
5697;DHT22;2873;50.966;7.210;2022-11-22T16:12:47;9.40;99.90
5697;DHT22;2873;50.966;7.210;2022-11-22T16:15:26;9.40;99.90
5697;DHT22;2873;50.966;7.210;2022-11-22T16:20:58;9.30;99.90
5697;DHT22;2873;50.966;7.210;2022-11-22T16:23:25;9.00;99.90
5697;DHT22;2873;50.966;7.210;2022-11-22T16:25:54;9.10;99.90
5697;DHT22;2873;50.966;7.210;2022-11-22T16:28:34;9.10;99.90
5697;DHT22;2873;50.966;7.210;2022-11-22T16:33:49;9.10;99.90
5697;DHT22;2873;50.966;7.210;2022-11-22T16:36:16;9.10;99.90
5697;DHT22;2873;50.966;7.210;2022-11-22T16:38:43;9.10;99.90
5697;DHT22;2873;50.966;7.210;2022-11-22T16:41:18;9.10;99.90
5697;DHT22;2873;50.966;7.210;2022-11-22T16:43:45;9.10;99.90
5697;DHT22;2873;50.966;7.210;2022-11-22T16:46:14;9.10;99.90
5697;DHT22;2873;50.966;7.210;2022-11-22T16:48:40;9.10;99.90
5697;DHT22;2873;50.966;7.210;2022-11-22T16:51:23;9.10;99.90
5697;DHT22;2873;50.966;7.210;2022-11-22T16:53:50;9.10;99.90
5697;DHT22;2873;50.966;7.210;2022-11-22T16:56:22;9.10;99.90
5697;DHT22;2873;50.966;7.210;2022-11-22T16:58:49;9.10;99.90
5697;DHT22;2873;50.966;7.210;2022-11-22T17:01:17;9.20;99.90
5697;DHT22;2873;50.966;7.210;2022-11-22T17:03:45;9.20;99.90
5697;DHT22;2873;50.966;7.210;2022-11-22T17:06:16;9.20;99.90
5697;DHT22;2873;50.966;7.210;2022-11-22T17:08:43;9.20;99.90
5697;DHT22;2873;50.966;7.210;2022-11-22T17:11:10;9.20;99.90
5697;DHT22;2873;50.966;7.210;2022-11-22T17:13:35;9.20;99.90
5697;DHT22;2873;50.966;7.210;2022-11-22T17:16:01;9.20;99.90
5697;DHT22;2873;50.966;7.210;2022-11-22T17:18:27;9.20;99.90
5697;DHT22;2873;50.966;7.210;2022-11-22T17:20:52;9.20;99.90
5697;DHT22;2873;50.966;7.210;2022-11-22T17:23:39;9.20;99.90
5697;DHT22;2873;50.966;7.210;2022-11-22T17:26:04;9.30;99.90
5697;DHT22;2873;50.966;7.210;2022-11-22T17:28:30;9.10;99.90
5697;DHT22;2873;50.966;7.210;2022-11-22T17:30:59;9.20;99.90
5697;DHT22;2873;50.966;7.210;2022-11-22T17:33:26;9.30;99.90
5697;DHT22;2873;50.966;7.210;2022-11-22T17:35:52;9.20;99.90
5697;DHT22;2873;50.966;7.210;2022-11-22T17:38:18;9.20;99.90
5697;DHT22;2873;50.966;7.210;2022-11-22T17:40:44;9.20;99.90
5697;DHT22;2873;50.966;7.210;2022-11-22T17:43:10;9.20;99.90
5697;DHT22;2873;50.966;7.210;2022-11-22T17:45:40;9.10;99.90
5697;DHT22;2873;50.966;7.210;2022-11-22T17:48:08;9.20;99.90
5697;DHT22;2873;50.966;7.210;2022-11-22T17:50:34;8.90;99.90
5697;DHT22;2873;50.966;7.210;2022-11-22T17:52:59;9.00;99.90
5697;DHT22;2873;50.966;7.210;2022-11-22T17:55:25;8.90;99.90
5697;DHT22;2873;50.966;7.210;2022-11-22T17:57:50;8.90;99.90
5697;DHT22;2873;50.966;7.210;2022-11-22T18:00:16;8.80;99.90
5697;DHT22;2873;50.966;7.210;2022-11-22T18:02:41;8.90;99.90
5697;DHT22;2873;50.966;7.210;2022-11-22T18:05:07;8.80;99.90
5697;DHT22;2873;50.966;7.210;2022-11-22T18:07:34;8.90;99.90
5697;DHT22;2873;50.966;7.210;2022-11-22T18:10:00;8.80;99.90
5697;DHT22;2873;50.966;7.210;2022-11-22T18:12:26;8.70;99.90
5697;DHT22;2873;50.966;7.210;2022-11-22T18:14:52;8.70;99.90
5697;DHT22;2873;50.966;7.210;2022-11-22T18:17:17;8.60;99.90
5697;DHT22;2873;50.966;7.210;2022-11-22T18:19:43;8.50;99.90
5697;DHT22;2873;50.966;7.210;2022-11-22T18:22:09;8.60;99.90
5697;DHT22;2873;50.966;7.210;2022-11-22T18:24:35;8.60;99.90
5697;DHT22;2873;50.966;7.210;2022-11-22T18:27:00;8.60;99.90
5697;DHT22;2873;50.966;7.210;2022-11-22T18:29:26;8.60;99.90
5697;DHT22;2873;50.966;7.210;2022-11-22T18:31:51;8.60;99.90
5697;DHT22;2873;50.966;7.210;2022-11-22T18:34:17;8.60;99.90
5697;DHT22;2873;50.966;7.210;2022-11-22T18:36:42;8.70;99.90
5697;DHT22;2873;50.966;7.210;2022-11-22T18:39:08;8.60;99.90
5697;DHT22;2873;50.966;7.210;2022-11-22T18:41:34;8.60;99.90
5697;DHT22;2873;50.966;7.210;2022-11-22T18:43:59;8.60;99.90
5697;DHT22;2873;50.966;7.210;2022-11-22T18:46:25;8.60;99.90